Terminal Aerodrome Forecast
Issued by NWS Denver/Boulder, CO

Home | Current Version | Previous Version | Text Only | Print | Product List | Glossary On
Versions: 1 2 3 4 5 6 7 8 9 10 11 12 13 14 15 16 17 18 19 20 21 22 23 24 25 26 27 28 29 30 31 32 33 34 35 36 37 38 39 40 41 42 43 44 45 46 47 48 49 50
000
FTUS45 KBOU 292320
TAFDEN
TAF
KDEN 292320Z 3000/3106 01015G22KT P6SM SCT050
     FM300200 04014KT P6SM FEW050 SCT200
     FM300400 15007KT P6SM FEW120 SCT200
     FM301200 19007KT P6SM FEW120 BKN220
     FM301800 14014KT P6SM FEW060 SCT120 BKN200
     FM310100 15014KT P6SM SCT060 BKN100=

USA.gov is the U.S. government's official web portal to all federal, state and local government web resources and services.